createdAt,value
2023-09-08T00:00:31.380Z,18.30
2023-09-08T00:02:58.442Z,18.30
2023-09-08T00:05:25.535Z,18.30
2023-09-08T00:07:52.656Z,18.30
2023-09-08T00:10:19.663Z,18.20
2023-09-08T00:12:46.705Z,18.30
2023-09-08T00:15:13.827Z,18.30
2023-09-08T00:17:41.023Z,18.20
2023-09-08T00:20:09.955Z,18.30
2023-09-08T00:22:39.710Z,18.30
2023-09-08T00:25:07.380Z,18.20
2023-09-08T00:27:34.492Z,18.20
2023-09-08T00:33:23.680Z,18.10
2023-09-08T00:35:51.124Z,18.10
2023-09-08T00:38:18.091Z,18.10
2023-09-08T00:40:45.038Z,18.10
2023-09-08T00:43:11.855Z,18.00
2023-09-08T00:45:43.869Z,18.00
2023-09-08T00:48:12.192Z,18.00
2023-09-08T00:50:40.063Z,18.00
2023-09-08T00:53:08.573Z,18.00
2023-09-08T00:55:36.453Z,17.90
2023-09-08T00:58:04.202Z,17.90
2023-09-08T01:00:31.082Z,17.90
2023-09-08T01:02:58.001Z,17.90
2023-09-08T01:05:25.460Z,17.80
2023-09-08T01:07:54.046Z,17.80
2023-09-08T01:10:20.972Z,17.80
2023-09-08T01:12:47.798Z,17.70
2023-09-08T01:15:14.910Z,17.70
2023-09-08T01:17:41.888Z,17.70
2023-09-08T01:20:25.635Z,17.60
2023-09-08T01:23:19.526Z,17.60
2023-09-08T01:26:21.180Z,17.60
2023-09-08T01:28:52.162Z,17.60
2023-09-08T01:31:19.672Z,17.70
2023-09-08T01:33:47.149Z,17.70
2023-09-08T01:36:15.454Z,17.60
2023-09-08T01:38:42.367Z,17.60
2023-09-08T01:41:10.621Z,17.60
2023-09-08T01:43:37.546Z,17.60
2023-09-08T01:46:04.901Z,17.60
2023-09-08T01:48:32.117Z,17.50
2023-09-08T01:50:59.202Z,17.50
2023-09-08T01:53:26.271Z,17.50
2023-09-08T01:55:53.323Z,17.50
2023-09-08T01:58:20.225Z,17.50
2023-09-08T02:00:51.172Z,17.50
2023-09-08T02:03:18.429Z,17.40
2023-09-08T02:05:46.635Z,17.40
2023-09-08T02:08:14.265Z,17.40
2023-09-08T02:10:41.772Z,17.40
2023-09-08T02:13:08.736Z,17.30
2023-09-08T02:15:38.899Z,17.40
2023-09-08T02:18:07.160Z,17.30
2023-09-08T02:20:34.231Z,17.30
2023-09-08T02:23:06.752Z,17.30
2023-09-08T02:25:34.691Z,17.20
2023-09-08T02:28:02.282Z,17.30
2023-09-08T02:30:29.777Z,17.20
2023-09-08T02:32:57.682Z,17.20
2023-09-08T02:35:25.895Z,17.20
2023-09-08T02:37:55.260Z,17.20
2023-09-08T02:40:22.648Z,17.20
2023-09-08T02:42:50.564Z,17.20
2023-09-08T02:45:17.902Z,17.10
2023-09-08T02:47:45.074Z,17.10
2023-09-08T02:50:12.096Z,17.10
2023-09-08T02:52:39.052Z,17.10
2023-09-08T02:55:06.139Z,17.10
2023-09-08T02:57:32.988Z,17.00
2023-09-08T03:00:00.892Z,17.00
2023-09-08T03:02:29.374Z,17.00
2023-09-08T03:04:56.606Z,17.00
2023-09-08T03:07:24.106Z,17.00
2023-09-08T03:09:51.175Z,17.00
2023-09-08T03:12:18.145Z,17.00
2023-09-08T03:14:45.946Z,17.00
2023-09-08T03:17:13.840Z,16.90
2023-09-08T03:19:40.961Z,16.90
2023-09-08T03:22:07.956Z,16.90
2023-09-08T03:24:34.852Z,16.80
2023-09-08T03:27:01.807Z,16.90
2023-09-08T03:29:29.323Z,16.90
2023-09-08T03:31:56.300Z,16.90
2023-09-08T03:34:24.552Z,16.90
2023-09-08T03:36:54.378Z,16.80
2023-09-08T03:39:21.974Z,16.80
2023-09-08T03:41:48.867Z,16.80
2023-09-08T03:44:15.802Z,16.70
2023-09-08T03:46:42.785Z,16.80
2023-09-08T03:49:09.955Z,16.70
2023-09-08T03:51:37.844Z,16.60
2023-09-08T03:54:04.937Z,16.70
2023-09-08T03:56:32.041Z,16.70
2023-09-08T03:58:59.064Z,16.70
2023-09-08T04:01:26.299Z,16.70
2023-09-08T04:03:53.258Z,16.60
2023-09-08T04:06:20.851Z,16.60
2023-09-08T04:08:49.098Z,16.70
2023-09-08T04:11:16.060Z,16.50
2023-09-08T04:13:43.433Z,16.50
2023-09-08T04:16:11.636Z,16.50
2023-09-08T04:18:38.628Z,16.50
2023-09-08T04:21:08.735Z,16.50
2023-09-08T04:23:36.323Z,16.50
2023-09-08T04:26:04.001Z,16.50
2023-09-08T04:28:31.363Z,16.50
2023-09-08T04:30:59.062Z,16.50
2023-09-08T04:33:27.365Z,16.50
2023-09-08T04:35:54.459Z,16.40
2023-09-08T04:38:21.717Z,16.40
2023-09-08T04:40:48.777Z,16.40
2023-09-08T04:43:17.231Z,16.40
2023-09-08T04:45:44.539Z,16.40
2023-09-08T04:48:11.842Z,16.30
2023-09-08T04:50:40.133Z,16.20
2023-09-08T04:53:08.981Z,16.10
2023-09-08T04:55:36.004Z,16.10
2023-09-08T04:58:05.415Z,16.00
2023-09-08T05:00:35.144Z,16.00
2023-09-08T05:03:03.627Z,16.10
2023-09-08T05:05:30.732Z,16.00
2023-09-08T05:07:57.693Z,16.00
2023-09-08T05:10:26.297Z,16.10
2023-09-08T05:12:53.721Z,16.10
2023-09-08T05:15:23.130Z,16.00
2023-09-08T05:17:53.743Z,16.00
2023-09-08T05:20:22.085Z,16.00
2023-09-08T05:22:49.400Z,16.10
2023-09-08T05:25:16.441Z,16.00
2023-09-08T05:27:43.921Z,16.00
2023-09-08T05:30:11.207Z,16.00
2023-09-08T05:32:38.741Z,16.00
2023-09-08T05:35:06.348Z,16.00
2023-09-08T05:37:33.521Z,16.10
2023-09-08T05:40:00.464Z,16.10
2023-09-08T05:42:27.413Z,16.20
2023-09-08T05:44:55.781Z,16.10
2023-09-08T05:47:23.333Z,16.20
2023-09-08T05:49:50.811Z,16.10
2023-09-08T05:52:17.879Z,16.20
2023-09-08T05:54:46.094Z,16.20
2023-09-08T05:57:13.449Z,16.20
2023-09-08T05:59:40.597Z,16.20
2023-09-08T06:02:07.645Z,16.20
2023-09-08T06:04:34.748Z,16.20
2023-09-08T06:07:02.536Z,16.20
2023-09-08T06:09:31.822Z,16.20
2023-09-08T06:11:58.841Z,16.20
2023-09-08T06:14:25.806Z,16.20
2023-09-08T06:16:52.715Z,16.30
2023-09-08T06:19:19.679Z,16.30
2023-09-08T06:21:46.534Z,16.30
2023-09-08T06:24:13.972Z,16.30
2023-09-08T06:26:41.122Z,16.30
2023-09-08T06:29:09.563Z,16.40
2023-09-08T06:31:36.717Z,16.40
2023-09-08T06:34:03.834Z,16.50
2023-09-08T06:36:30.926Z,16.50
2023-09-08T06:38:57.848Z,16.50
2023-09-08T06:41:24.991Z,16.50
2023-09-08T06:43:53.833Z,16.60
2023-09-08T06:46:22.991Z,16.70
2023-09-08T06:48:50.034Z,16.70
2023-09-08T06:51:17.313Z,16.70
2023-09-08T06:53:45.545Z,16.70
2023-09-08T06:56:12.896Z,16.70
2023-09-08T06:58:39.858Z,16.80
2023-09-08T07:01:06.891Z,16.80
2023-09-08T07:03:38.267Z,16.80
2023-09-08T07:06:07.486Z,16.90
2023-09-08T07:08:34.931Z,16.90
2023-09-08T07:11:02.156Z,16.90
2023-09-08T07:13:29.980Z,17.00
2023-09-08T07:15:57.976Z,17.00
2023-09-08T07:18:25.012Z,17.00
2023-09-08T07:20:52.100Z,17.10
2023-09-08T07:23:20.788Z,17.10
2023-09-08T07:25:48.884Z,17.10
2023-09-08T07:28:17.236Z,17.20
2023-09-08T07:30:44.503Z,17.20
2023-09-08T07:33:12.831Z,17.30
2023-09-08T07:35:41.292Z,17.30
2023-09-08T07:38:08.404Z,17.40
2023-09-08T07:40:36.130Z,17.40
2023-09-08T07:43:03.654Z,17.40
2023-09-08T07:45:30.614Z,17.50
2023-09-08T07:47:57.650Z,17.50
2023-09-08T07:50:29.675Z,17.60
2023-09-08T07:52:57.633Z,17.50
2023-09-08T07:55:28.446Z,17.60
2023-09-08T07:57:56.440Z,17.70
2023-09-08T08:00:23.406Z,17.60
2023-09-08T08:02:54.426Z,17.70
2023-09-08T08:05:21.922Z,17.80
2023-09-08T08:07:49.746Z,17.70
2023-09-08T08:10:17.109Z,17.80
2023-09-08T08:12:44.692Z,17.80
2023-09-08T08:15:12.032Z,17.90
2023-09-08T08:17:39.899Z,17.90
2023-09-08T08:20:10.005Z,17.90
2023-09-08T08:22:38.014Z,17.90
2023-09-08T08:25:05.871Z,17.90
2023-09-08T08:27:32.972Z,18.00
2023-09-08T08:30:01.936Z,18.00
2023-09-08T08:32:30.208Z,18.00
2023-09-08T08:34:57.983Z,18.10
2023-09-08T08:37:25.237Z,18.10
2023-09-08T08:39:52.273Z,18.10
2023-09-08T08:42:23.275Z,18.10
2023-09-08T08:44:51.302Z,18.20
2023-09-08T08:47:20.339Z,18.10
2023-09-08T08:49:49.341Z,18.20
2023-09-08T08:52:16.980Z,18.20
2023-09-08T08:54:44.112Z,18.30
2023-09-08T08:57:12.932Z,18.30
2023-09-08T08:59:40.285Z,18.30
2023-09-08T09:02:09.423Z,18.30
2023-09-08T09:04:38.535Z,18.30
2023-09-08T09:07:08.221Z,18.30
2023-09-08T09:09:35.422Z,18.40
2023-09-08T09:12:04.010Z,18.40
2023-09-08T09:14:36.015Z,18.50
2023-09-08T09:17:06.223Z,18.40
2023-09-08T09:19:34.243Z,18.50
2023-09-08T09:22:01.113Z,18.50
2023-09-08T09:24:35.129Z,18.60
2023-09-08T09:27:02.670Z,18.60
2023-09-08T09:29:30.484Z,18.60
2023-09-08T09:31:58.320Z,18.70
2023-09-08T09:34:25.433Z,18.70
2023-09-08T09:36:53.204Z,18.70
2023-09-08T09:39:21.712Z,18.80
2023-09-08T09:41:49.590Z,18.80
2023-09-08T09:44:19.760Z,18.80
2023-09-08T09:46:47.118Z,18.90
2023-09-08T09:49:20.678Z,18.90
2023-09-08T09:51:54.032Z,18.90
2023-09-08T09:54:21.005Z,18.90
2023-09-08T09:56:52.847Z,18.90
2023-09-08T09:59:19.833Z,18.90
2023-09-08T10:01:47.475Z,18.90
2023-09-08T10:04:16.742Z,19.00
2023-09-08T10:06:46.153Z,19.00
2023-09-08T10:09:17.285Z,19.10
2023-09-08T10:11:49.843Z,19.20
2023-09-08T10:14:20.281Z,19.10
2023-09-08T10:16:53.473Z,19.10
2023-09-08T10:19:22.867Z,19.20
2023-09-08T10:21:53.002Z,19.10
2023-09-08T10:24:44.227Z,19.20
2023-09-08T10:27:13.034Z,19.30
2023-09-08T10:29:40.597Z,19.20
2023-09-08T10:32:10.337Z,19.20
2023-09-08T10:34:38.355Z,19.20
2023-09-08T10:37:22.235Z,19.30
2023-09-08T10:39:49.570Z,19.30
2023-09-08T10:42:22.649Z,19.30
2023-09-08T10:44:52.286Z,19.40
2023-09-08T10:47:49.083Z,19.40
2023-09-08T10:50:19.941Z,19.40
2023-09-08T10:53:05.694Z,19.50
2023-09-08T10:55:42.913Z,19.50
2023-09-08T10:58:17.981Z,19.50
2023-09-08T11:00:52.184Z,19.50
2023-09-08T11:03:45.228Z,19.50
2023-09-08T11:06:12.929Z,19.60
2023-09-08T11:08:45.248Z,19.60
2023-09-08T11:11:16.736Z,19.70
2023-09-08T11:13:47.002Z,19.70
2023-09-08T11:16:16.229Z,19.60
2023-09-08T11:18:46.035Z,19.70
2023-09-08T11:21:12.987Z,19.60
2023-09-08T11:23:41.130Z,19.70
2023-09-08T11:26:10.020Z,19.60
2023-09-08T11:28:37.911Z,19.60
2023-09-08T11:31:05.823Z,19.60
2023-09-08T11:33:35.934Z,19.60
2023-09-08T11:36:02.873Z,19.60
2023-09-08T11:38:31.851Z,19.60
2023-09-08T11:40:59.577Z,19.60
2023-09-08T11:43:28.600Z,19.70
2023-09-08T11:45:56.816Z,19.60
2023-09-08T11:48:26.233Z,19.60
2023-09-08T11:50:56.520Z,19.70
2023-09-08T11:53:24.704Z,19.80
2023-09-08T11:55:51.857Z,19.80
2023-09-08T11:58:20.964Z,19.80
2023-09-08T12:00:51.173Z,19.80
2023-09-08T12:03:18.396Z,19.80
2023-09-08T12:05:51.674Z,19.80
2023-09-08T12:08:18.644Z,19.80
2023-09-08T12:10:45.620Z,19.90
2023-09-08T12:13:15.023Z,19.90
2023-09-08T12:15:43.286Z,19.90
2023-09-08T12:18:12.166Z,20.00
2023-09-08T12:20:40.547Z,20.00
2023-09-08T12:23:16.758Z,19.90
2023-09-08T12:25:54.405Z,20.10
2023-09-08T12:28:22.530Z,20.10
2023-09-08T12:30:54.493Z,20.00
2023-09-08T12:33:22.262Z,20.00
2023-09-08T12:35:52.231Z,20.10
2023-09-08T12:38:19.478Z,20.10
2023-09-08T12:40:46.368Z,20.10
2023-09-08T12:43:24.458Z,20.10
2023-09-08T12:45:55.551Z,20.10
2023-09-08T12:48:23.032Z,20.10
2023-09-08T12:50:50.576Z,20.10
2023-09-08T12:53:19.655Z,20.10
2023-09-08T12:55:47.492Z,20.20
2023-09-08T12:58:14.642Z,20.20
2023-09-08T13:00:41.839Z,20.20
2023-09-08T13:03:08.714Z,20.10
2023-09-08T13:05:35.769Z,20.20
2023-09-08T13:08:02.825Z,20.20
2023-09-08T13:10:30.014Z,20.20
2023-09-08T13:12:57.043Z,20.20
2023-09-08T13:15:25.117Z,20.20
2023-09-08T13:17:52.530Z,20.30
2023-09-08T13:20:19.978Z,20.30
2023-09-08T13:22:47.078Z,20.40
2023-09-08T13:25:14.355Z,20.30
2023-09-08T13:27:44.565Z,20.40
2023-09-08T13:30:16.603Z,20.30
2023-09-08T13:32:45.633Z,20.40
2023-09-08T13:35:13.196Z,20.40
2023-09-08T13:37:40.410Z,20.40
2023-09-08T13:40:09.069Z,20.40
2023-09-08T13:42:36.934Z,20.40
2023-09-08T13:45:04.862Z,20.40
2023-09-08T13:47:32.878Z,20.50
2023-09-08T13:50:02.214Z,20.50
2023-09-08T13:52:32.091Z,20.50
2023-09-08T13:57:30.684Z,20.50
2023-09-08T13:59:58.547Z,20.40
2023-09-08T14:04:59.791Z,20.50
2023-09-08T14:07:36.731Z,20.50
2023-09-08T14:12:38.844Z,20.50
2023-09-08T14:15:06.726Z,20.60
2023-09-08T14:17:33.830Z,20.60
2023-09-08T14:20:00.827Z,20.60
2023-09-08T14:22:28.028Z,20.50
2023-09-08T14:24:54.939Z,20.60
2023-09-08T14:27:21.753Z,20.60
2023-09-08T14:29:48.730Z,20.60
2023-09-08T14:32:15.836Z,20.60
2023-09-08T14:34:42.825Z,20.60
2023-09-08T14:37:11.334Z,20.70
2023-09-08T14:39:38.766Z,20.60
2023-09-08T14:42:06.896Z,20.70
2023-09-08T14:44:34.061Z,20.70
2023-09-08T14:47:01.039Z,20.60
2023-09-08T14:49:27.982Z,20.70
2023-09-08T14:51:54.904Z,20.70
2023-09-08T14:54:21.887Z,20.70
2023-09-08T14:56:48.900Z,20.80
2023-09-08T14:59:15.894Z,20.70
2023-09-08T15:01:45.954Z,20.70
2023-09-08T15:04:13.821Z,20.70
2023-09-08T15:06:40.922Z,20.70
2023-09-08T15:09:07.886Z,20.70
2023-09-08T15:11:34.791Z,20.80
2023-09-08T15:14:01.842Z,20.70
2023-09-08T15:16:28.989Z,20.70
2023-09-08T15:18:58.272Z,20.70
2023-09-08T15:21:28.783Z,20.70
2023-09-08T15:23:56.107Z,20.70
2023-09-08T15:26:23.215Z,20.80
2023-09-08T15:28:50.101Z,20.70
2023-09-08T15:31:18.244Z,20.80
2023-09-08T15:33:46.086Z,20.70
2023-09-08T15:36:13.572Z,20.70
2023-09-08T15:38:41.043Z,20.80
2023-09-08T15:41:08.636Z,20.80
2023-09-08T15:43:38.502Z,20.70
2023-09-08T15:46:09.639Z,20.80
2023-09-08T15:48:38.441Z,20.70
2023-09-08T15:51:06.551Z,20.80
2023-09-08T15:53:33.543Z,20.70
2023-09-08T15:56:00.673Z,20.70
2023-09-08T15:58:27.725Z,20.80
2023-09-08T16:00:54.674Z,20.70
2023-09-08T16:03:22.419Z,20.70
2023-09-08T16:05:49.433Z,20.70
2023-09-08T16:08:16.362Z,20.70
2023-09-08T16:10:43.348Z,20.70
2023-09-08T16:13:10.204Z,20.70
2023-09-08T16:15:37.121Z,20.70
2023-09-08T16:18:06.208Z,20.80
2023-09-08T16:20:33.838Z,20.70
2023-09-08T16:23:01.324Z,20.80
2023-09-08T16:25:28.213Z,20.70
2023-09-08T16:27:55.118Z,20.70
2023-09-08T16:30:22.243Z,20.70
2023-09-08T16:32:49.390Z,20.70
2023-09-08T16:35:16.530Z,20.70
2023-09-08T16:37:44.621Z,20.70
2023-09-08T16:40:11.769Z,20.80
2023-09-08T16:42:39.110Z,20.70
2023-09-08T16:45:06.800Z,20.70
2023-09-08T16:47:35.938Z,20.70
2023-09-08T16:50:04.550Z,20.70
2023-09-08T16:52:31.670Z,20.70
2023-09-08T16:54:58.755Z,20.70
2023-09-08T16:57:25.898Z,20.60
2023-09-08T16:59:53.311Z,20.60
2023-09-08T17:02:20.526Z,20.60
2023-09-08T17:04:47.625Z,20.60
2023-09-08T17:07:16.104Z,20.60
2023-09-08T17:09:43.543Z,20.60
2023-09-08T17:12:11.074Z,20.50
2023-09-08T17:14:38.872Z,20.50
2023-09-08T17:17:05.998Z,20.50
2023-09-08T17:19:33.029Z,20.50
2023-09-08T17:22:00.937Z,20.50
2023-09-08T17:24:28.658Z,20.50
2023-09-08T17:26:56.655Z,20.40
2023-09-08T17:29:23.635Z,20.40
2023-09-08T17:31:50.519Z,20.40
2023-09-08T17:34:21.510Z,20.40
2023-09-08T17:36:52.642Z,20.40
2023-09-08T17:39:19.685Z,20.40
2023-09-08T17:41:48.912Z,20.40
2023-09-08T17:44:16.009Z,20.40
2023-09-08T17:46:43.409Z,20.40
2023-09-08T17:49:10.552Z,20.30
2023-09-08T17:51:37.514Z,20.30
2023-09-08T17:54:04.710Z,20.30
2023-09-08T17:56:31.997Z,20.30
2023-09-08T17:58:58.935Z,20.30
2023-09-08T18:01:26.265Z,20.20
2023-09-08T18:03:53.632Z,20.30
2023-09-08T18:06:20.791Z,20.30
2023-09-08T18:08:52.521Z,20.20
2023-09-08T18:11:22.175Z,20.20
2023-09-08T18:13:50.285Z,20.20
2023-09-08T18:16:17.620Z,20.20
2023-09-08T18:18:46.782Z,20.20
2023-09-08T18:21:14.256Z,20.20
2023-09-08T18:23:42.370Z,20.20
2023-09-08T18:26:09.557Z,20.20
2023-09-08T18:28:36.654Z,20.10
2023-09-08T18:31:04.044Z,20.10
2023-09-08T18:33:31.094Z,20.10
2023-09-08T18:35:58.352Z,20.10
2023-09-08T18:38:25.417Z,20.00
2023-09-08T18:40:52.415Z,19.90
2023-09-08T18:43:19.419Z,19.90
2023-09-08T18:45:46.909Z,19.80
2023-09-08T18:48:14.782Z,19.80
2023-09-08T18:50:43.157Z,19.80
2023-09-08T18:53:11.510Z,19.90
2023-09-08T18:55:38.537Z,19.70
2023-09-08T18:58:06.575Z,19.80
2023-09-08T19:00:33.954Z,19.80
2023-09-08T19:03:01.347Z,19.70
2023-09-08T19:05:29.068Z,19.70
2023-09-08T19:07:55.941Z,19.70
2023-09-08T19:10:23.220Z,19.70
2023-09-08T19:12:50.157Z,19.60
2023-09-08T19:15:18.410Z,19.70
2023-09-08T19:17:46.890Z,19.60
2023-09-08T19:20:14.130Z,19.60
2023-09-08T19:22:41.052Z,19.60
2023-09-08T19:25:09.396Z,19.70
2023-09-08T19:27:39.603Z,19.60
2023-09-08T19:30:07.249Z,19.60
2023-09-08T19:32:34.663Z,19.60
2023-09-08T19:35:01.805Z,19.60
2023-09-08T19:37:28.817Z,19.50
2023-09-08T19:39:55.811Z,19.50
2023-09-08T19:42:22.960Z,19.50
2023-09-08T19:44:49.871Z,19.50
2023-09-08T19:47:16.830Z,19.40
2023-09-08T19:49:45.644Z,19.50
2023-09-08T19:52:18.978Z,19.40
2023-09-08T19:54:45.980Z,19.40
2023-09-08T19:57:12.950Z,19.30
2023-09-08T19:59:43.166Z,19.30
2023-09-08T20:02:10.786Z,19.30
2023-09-08T20:04:38.837Z,19.30
2023-09-08T20:07:06.706Z,19.30
2023-09-08T20:09:34.187Z,19.30
2023-09-08T20:12:01.824Z,19.30
2023-09-08T20:14:28.781Z,19.20
2023-09-08T20:16:55.924Z,19.20
2023-09-08T20:19:22.835Z,19.10
2023-09-08T20:21:49.802Z,19.10
2023-09-08T20:24:16.742Z,19.10
2023-09-08T20:26:43.686Z,19.00
2023-09-08T20:29:11.020Z,19.00
2023-09-08T20:31:37.991Z,19.00
2023-09-08T20:34:05.113Z,18.90
2023-09-08T20:36:32.179Z,19.00
2023-09-08T20:38:59.189Z,18.90
2023-09-08T20:41:26.265Z,18.90
2023-09-08T20:43:53.296Z,18.90
2023-09-08T20:46:20.320Z,18.90
2023-09-08T20:48:48.203Z,18.90
2023-09-08T20:51:18.316Z,18.80
2023-09-08T20:53:45.731Z,18.80
2023-09-08T20:56:12.705Z,18.80
2023-09-08T20:58:41.623Z,18.80
2023-09-08T21:01:09.416Z,18.80
2023-09-08T21:03:37.857Z,18.80
2023-09-08T21:06:05.292Z,18.80
2023-09-08T21:08:32.253Z,18.80
2023-09-08T21:10:59.659Z,18.70
2023-09-08T21:13:26.671Z,18.70
2023-09-08T21:15:53.777Z,18.70
2023-09-08T21:18:21.140Z,18.70
2023-09-08T21:20:49.294Z,18.60
2023-09-08T21:23:17.093Z,18.60
2023-09-08T21:25:44.064Z,18.60
2023-09-08T21:28:10.981Z,18.50
2023-09-08T21:30:37.853Z,18.50
2023-09-08T21:33:05.911Z,18.50
2023-09-08T21:35:32.835Z,18.50
2023-09-08T21:37:59.735Z,18.50
2023-09-08T21:40:26.863Z,18.50
2023-09-08T21:42:53.831Z,18.50
2023-09-08T21:45:20.740Z,18.50
2023-09-08T21:47:48.174Z,18.50
2023-09-08T21:50:18.679Z,18.50
2023-09-08T21:52:45.941Z,18.40
2023-09-08T21:55:13.039Z,18.30
2023-09-08T21:57:40.026Z,18.40
2023-09-08T22:00:11.709Z,18.40
2023-09-08T22:02:38.784Z,18.30
2023-09-08T22:05:06.569Z,18.30
2023-09-08T22:07:33.595Z,18.40
2023-09-08T22:10:00.580Z,18.30
2023-09-08T22:12:27.462Z,18.30
2023-09-08T22:14:54.367Z,18.30
2023-09-08T22:17:21.234Z,18.20
2023-09-08T22:19:48.231Z,18.20
2023-09-08T22:22:15.180Z,18.30
2023-09-08T22:24:42.058Z,18.20
2023-09-08T22:27:08.934Z,18.20
2023-09-08T22:29:35.772Z,18.20
2023-09-08T22:32:02.679Z,18.20
2023-09-08T22:34:29.722Z,18.10
2023-09-08T22:36:56.816Z,18.10
2023-09-08T22:39:23.841Z,18.20
2023-09-08T22:41:50.781Z,18.20
2023-09-08T22:44:17.700Z,18.10
2023-09-08T22:46:44.792Z,18.10
2023-09-08T22:49:13.763Z,18.10
2023-09-08T22:51:41.091Z,18.10
2023-09-08T22:54:08.095Z,18.00
2023-09-08T22:56:35.509Z,18.00
2023-09-08T22:59:02.422Z,18.00
2023-09-08T23:01:29.253Z,18.00
2023-09-08T23:03:56.154Z,17.90
2023-09-08T23:06:23.007Z,17.90
2023-09-08T23:08:50.502Z,17.90
2023-09-08T23:11:17.389Z,17.80
2023-09-08T23:13:44.271Z,17.80
2023-09-08T23:16:14.469Z,17.80
2023-09-08T23:18:41.381Z,17.70
2023-09-08T23:21:08.449Z,17.70
2023-09-08T23:23:36.014Z,17.70
2023-09-08T23:26:04.505Z,17.70
2023-09-08T23:28:31.517Z,17.70
2023-09-08T23:30:59.111Z,17.70
2023-09-08T23:33:26.324Z,17.70
2023-09-08T23:35:53.431Z,17.60
2023-09-08T23:38:20.427Z,17.60
2023-09-08T23:40:47.386Z,17.60
2023-09-08T23:43:14.598Z,17.60
2023-09-08T23:45:47.432Z,17.60
2023-09-08T23:48:14.333Z,17.50
2023-09-08T23:50:58.202Z,17.50
2023-09-08T23:53:29.428Z,17.60
2023-09-08T23:55:56.866Z,17.50
2023-09-08T23:58:23.843Z,17.40
